createdAt,value
2022-09-02T00:03:35.515Z,24.83
2022-09-02T00:08:32.240Z,24.76
2022-09-02T00:13:29.851Z,24.93
2022-09-02T00:18:26.684Z,24.92
2022-09-02T00:23:24.126Z,24.86
2022-09-02T00:28:24.146Z,24.86
2022-09-02T00:33:21.493Z,24.55
2022-09-02T00:38:19.423Z,24.15
2022-09-02T00:43:22.800Z,24.15
2022-09-02T00:48:19.631Z,24.13
2022-09-02T00:53:17.757Z,24.05
2022-09-02T00:58:16.424Z,24.29
2022-09-02T01:03:14.236Z,24.12
2022-09-02T01:08:11.523Z,24.16
2022-09-02T01:13:10.569Z,24.16
2022-09-02T01:18:09.150Z,24.04
2022-09-02T01:23:06.546Z,23.71
2022-09-02T01:28:04.731Z,23.68
2022-09-02T01:33:02.114Z,23.73
2022-09-02T01:38:00.932Z,23.95
2022-09-02T01:43:00.927Z,23.62
2022-09-02T01:47:57.613Z,23.71
2022-09-02T01:52:54.792Z,23.76
2022-09-02T01:57:51.418Z,23.91
2022-09-02T02:02:50.351Z,23.91
2022-09-02T02:07:47.129Z,23.42
2022-09-02T02:12:43.793Z,23.50
2022-09-02T02:17:40.733Z,23.04
2022-09-02T02:22:38.451Z,23.17
2022-09-02T02:27:35.097Z,23.27
2022-09-02T02:32:35.706Z,23.27
2022-09-02T02:37:32.483Z,23.28
2022-09-02T02:42:29.862Z,22.84
2022-09-02T02:47:27.198Z,22.79
2022-09-02T02:52:23.858Z,22.68
2022-09-02T02:57:22.588Z,22.71
2022-09-02T03:02:21.312Z,22.74
2022-09-02T03:07:17.994Z,22.51
2022-09-02T03:12:16.428Z,22.50
2022-09-02T03:17:14.703Z,22.44
2022-09-02T03:22:12.833Z,22.57
2022-09-02T03:27:10.486Z,22.50
2022-09-02T03:32:08.030Z,22.55
2022-09-02T03:37:04.957Z,22.19
2022-09-02T03:42:02.320Z,22.36
2022-09-02T03:47:02.624Z,22.42
2022-09-02T03:51:59.391Z,22.20
2022-09-02T03:56:56.164Z,22.46
2022-09-02T04:01:55.051Z,22.21
2022-09-02T04:06:51.836Z,22.22
2022-09-02T04:11:48.728Z,22.32
2022-09-02T04:16:45.388Z,22.38
2022-09-02T04:21:44.273Z,22.34
2022-09-02T04:26:45.245Z,22.07
2022-09-02T04:31:44.886Z,21.97
2022-09-02T04:36:41.606Z,21.97
2022-09-02T04:41:39.903Z,21.97
2022-09-02T04:46:40.367Z,21.98
2022-09-02T04:51:41.454Z,22.20
2022-09-02T04:56:40.908Z,22.13
2022-09-02T05:01:38.484Z,22.53
2022-09-02T05:06:44.350Z,22.66
2022-09-02T05:11:47.410Z,22.71
2022-09-02T05:16:45.465Z,22.65
2022-09-02T05:21:46.399Z,22.50
2022-09-02T05:26:51.815Z,22.39
2022-09-02T05:31:48.679Z,22.40
2022-09-02T05:36:46.295Z,22.52
2022-09-02T05:41:43.158Z,22.28
2022-09-02T05:46:45.560Z,22.40
2022-09-02T05:51:46.424Z,22.56
2022-09-02T05:56:46.550Z,22.68
2022-09-02T06:01:45.389Z,22.68
2022-09-02T06:06:42.437Z,22.62
2022-09-02T06:11:44.038Z,22.68
2022-09-02T06:16:41.931Z,22.75
2022-09-02T06:21:47.308Z,22.62
2022-09-02T06:26:45.339Z,22.96
2022-09-02T06:31:42.420Z,22.83
2022-09-02T06:36:48.987Z,22.99
2022-09-02T06:41:48.534Z,23.44
2022-09-02T06:46:48.213Z,23.33
2022-09-02T06:51:50.046Z,23.22
2022-09-02T06:56:49.829Z,23.38
2022-09-02T07:01:51.187Z,22.91
2022-09-02T07:06:52.083Z,23.15
2022-09-02T07:11:52.041Z,23.69
2022-09-02T07:16:51.687Z,23.48
2022-09-02T07:21:49.531Z,23.62
2022-09-02T07:26:46.736Z,23.24
2022-09-02T07:31:47.085Z,23.30
2022-09-02T07:36:47.970Z,23.51
2022-09-02T07:41:49.963Z,23.62
2022-09-02T07:46:48.755Z,23.89
2022-09-02T07:51:49.425Z,23.88
2022-09-02T07:56:49.186Z,23.99
2022-09-02T08:01:48.863Z,24.22
2022-09-02T08:06:47.169Z,24.60
2022-09-02T08:11:48.763Z,24.19
2022-09-02T08:16:46.305Z,24.34
2022-09-02T08:21:44.107Z,24.38
2022-09-02T08:26:40.832Z,24.18
2022-09-02T08:31:38.152Z,24.42
2022-09-02T08:36:34.792Z,24.99
2022-09-02T08:41:33.916Z,25.08
2022-09-02T08:46:32.332Z,25.17
2022-09-02T08:51:37.242Z,24.84
2022-09-02T08:56:35.101Z,24.66
2022-09-02T09:01:38.886Z,24.89
2022-09-02T09:06:51.756Z,24.69
2022-09-02T09:11:54.045Z,24.89
2022-09-02T09:16:55.812Z,24.99
2022-09-02T09:21:53.599Z,24.91
2022-09-02T09:26:50.883Z,25.24
2022-09-02T09:31:51.342Z,25.54
2022-09-02T09:36:52.940Z,25.69
2022-09-02T09:41:51.538Z,25.67
2022-09-02T09:47:00.164Z,25.97
2022-09-02T09:51:56.889Z,25.82
2022-09-02T09:56:55.111Z,26.24
2022-09-02T10:01:54.350Z,26.06
2022-09-02T10:06:51.101Z,26.23
2022-09-02T10:11:55.133Z,26.47
2022-09-02T10:16:57.734Z,26.33
2022-09-02T10:22:22.137Z,26.63
2022-09-02T10:27:37.376Z,26.33
2022-09-02T10:32:40.784Z,26.55
2022-09-02T10:37:42.196Z,26.52
2022-09-02T10:42:58.063Z,26.13
2022-09-02T10:48:02.319Z,26.07
2022-09-02T10:53:09.653Z,26.34
2022-09-02T10:58:09.133Z,26.37
2022-09-02T11:03:10.026Z,26.49
2022-09-02T11:08:10.426Z,26.55
2022-09-02T11:13:11.951Z,26.64
2022-09-02T11:23:20.134Z,26.86
2022-09-02T11:28:27.023Z,27.17
2022-09-02T11:33:28.240Z,27.16
2022-09-02T11:38:32.311Z,27.29
2022-09-02T11:43:35.157Z,27.26
2022-09-02T11:48:46.353Z,27.38
2022-09-02T11:53:45.780Z,27.35
2022-09-02T11:58:43.954Z,27.48
2022-09-02T12:04:06.825Z,27.45
2022-09-02T12:09:05.380Z,27.53
2022-09-02T12:14:04.531Z,27.37
2022-09-02T12:19:25.061Z,27.36
2022-09-02T12:24:21.685Z,26.71
2022-09-02T12:29:31.586Z,26.61
2022-09-02T12:34:46.781Z,26.29
2022-09-02T12:39:50.301Z,26.05
2022-09-02T12:44:52.718Z,26.03
2022-09-02T12:49:52.933Z,26.06
2022-09-02T12:54:50.156Z,26.19
2022-09-02T12:59:47.801Z,26.52
2022-09-02T13:04:48.981Z,26.30
2022-09-02T13:09:57.084Z,24.46
2022-09-02T13:14:58.664Z,24.24
2022-09-02T13:20:08.580Z,24.66
2022-09-02T13:25:25.032Z,25.13
2022-09-02T13:30:26.079Z,24.92
2022-09-02T13:35:30.398Z,24.99
2022-09-02T13:40:28.138Z,25.21
2022-09-02T13:45:26.197Z,25.41
2022-09-02T13:50:24.338Z,25.76
2022-09-02T13:55:21.464Z,25.79
2022-09-02T14:00:31.247Z,25.78
2022-09-02T14:05:29.036Z,24.64
2022-09-02T14:10:27.644Z,23.85
2022-09-02T14:15:25.375Z,23.24
2022-09-02T14:20:22.751Z,22.65
2022-09-02T14:25:24.163Z,23.15
2022-09-02T14:30:29.471Z,23.02
2022-09-02T14:35:27.289Z,22.98
2022-09-02T14:40:34.875Z,23.12
2022-09-02T14:45:32.377Z,23.24
2022-09-02T14:50:32.065Z,23.63
2022-09-02T14:55:51.753Z,23.09
2022-09-02T15:00:51.489Z,23.47
2022-09-02T15:05:48.524Z,23.75
2022-09-02T15:10:45.461Z,23.20
2022-09-02T15:15:42.964Z,23.68
2022-09-02T15:20:39.635Z,23.90
2022-09-02T15:25:36.336Z,24.13
2022-09-02T15:30:33.866Z,23.90
2022-09-02T15:35:32.235Z,24.04
2022-09-02T15:40:29.186Z,23.95
2022-09-02T15:45:27.386Z,24.05
2022-09-02T15:50:23.986Z,24.16
2022-09-02T15:55:29.052Z,23.90
2022-09-02T16:00:28.531Z,23.24
2022-09-02T16:05:25.410Z,22.94
2022-09-02T16:10:22.174Z,23.03
2022-09-02T16:15:20.369Z,22.64
2022-09-02T16:20:21.125Z,22.83
2022-09-02T16:25:18.140Z,23.02
2022-09-02T16:30:15.604Z,22.84
2022-09-02T16:35:13.144Z,22.53
2022-09-02T16:40:10.857Z,22.34
2022-09-02T16:45:08.095Z,22.77
2022-09-02T16:50:05.068Z,23.08
2022-09-02T16:55:02.468Z,23.03
2022-09-02T16:59:59.309Z,22.84
2022-09-02T17:04:56.025Z,23.05
2022-09-02T17:09:52.609Z,23.23
2022-09-02T17:14:50.029Z,23.32
2022-09-02T17:19:46.609Z,23.27
2022-09-02T17:24:43.246Z,23.40
2022-09-02T17:29:49.255Z,23.29
2022-09-02T17:34:49.138Z,23.45
2022-09-02T17:39:46.707Z,23.11
2022-09-02T17:44:43.740Z,23.27
2022-09-02T17:49:41.676Z,23.32
2022-09-02T17:54:39.916Z,23.59
2022-09-02T17:59:41.339Z,23.60
2022-09-02T18:04:43.179Z,23.02
2022-09-02T18:09:40.432Z,22.54
2022-09-02T18:14:40.531Z,22.52
2022-09-02T18:19:45.371Z,22.57
2022-09-02T18:24:52.881Z,22.61
2022-09-02T18:30:00.583Z,22.48
2022-09-02T18:35:05.463Z,22.30
2022-09-02T18:40:10.740Z,21.93
2022-09-02T18:45:11.014Z,21.97
2022-09-02T18:50:07.866Z,21.92
2022-09-02T18:55:09.701Z,22.00
2022-09-02T19:00:07.956Z,22.34
2022-09-02T19:05:06.597Z,22.44
2022-09-02T19:10:03.628Z,22.43
2022-09-02T19:15:01.472Z,22.38
2022-09-02T19:19:58.119Z,22.26
2022-09-02T19:24:59.157Z,22.25
2022-09-02T19:29:59.656Z,22.23
2022-09-02T19:34:57.347Z,22.41
2022-09-02T19:39:54.116Z,21.89
2022-09-02T19:44:50.785Z,21.77
2022-09-02T19:49:47.492Z,21.76
2022-09-02T19:54:44.742Z,21.28
2022-09-02T19:59:41.305Z,20.93
2022-09-02T20:04:38.132Z,20.71
2022-09-02T20:09:34.685Z,20.56
2022-09-02T20:14:33.413Z,20.64
2022-09-02T20:19:31.357Z,20.79
2022-09-02T20:24:30.613Z,20.82
2022-09-02T20:29:34.089Z,20.77
2022-09-02T20:34:37.923Z,20.93
2022-09-02T20:39:42.982Z,20.71
2022-09-02T20:44:47.033Z,20.68
2022-09-02T20:49:53.413Z,20.56
2022-09-02T20:54:54.582Z,20.56
2022-09-02T20:59:56.071Z,20.21
2022-09-02T21:04:55.545Z,20.37
2022-09-02T21:09:55.737Z,20.44
2022-09-02T21:14:55.639Z,20.12
2022-09-02T21:19:55.004Z,20.04
2022-09-02T21:24:55.686Z,20.07
2022-09-02T21:29:56.996Z,20.41
2022-09-02T21:34:59.911Z,20.43
2022-09-02T21:40:01.701Z,20.69
2022-09-02T21:45:05.227Z,19.94
2022-09-02T21:50:06.011Z,19.44
2022-09-02T21:55:08.863Z,19.40
2022-09-02T22:00:07.465Z,19.40
2022-09-02T22:05:19.200Z,19.39
2022-09-02T22:10:19.826Z,19.57
2022-09-02T22:15:18.099Z,19.62
2022-09-02T22:20:16.891Z,19.82
2022-09-02T22:25:14.300Z,19.74
2022-09-02T22:30:12.892Z,19.25
2022-09-02T22:35:15.871Z,19.19
2022-09-02T22:40:14.703Z,19.53
2022-09-02T22:45:31.855Z,19.45
2022-09-02T22:50:51.497Z,19.36
2022-09-02T22:55:58.139Z,19.53
2022-09-02T23:01:00.782Z,19.32
2022-09-02T23:06:08.005Z,19.19
2022-09-02T23:11:10.931Z,19.03
2022-09-02T23:16:13.975Z,19.27
2022-09-02T23:21:16.373Z,19.18
2022-09-02T23:26:20.236Z,19.35
2022-09-02T23:31:21.844Z,19.27
2022-09-02T23:36:21.320Z,19.42
2022-09-02T23:41:17.998Z,19.66
2022-09-02T23:46:19.576Z,19.20
2022-09-02T23:51:18.549Z,18.91
2022-09-02T23:56:21.661Z,18.79
